sensor_id;sensor_type;location;lat;lon;timestamp;pressure;altitude;pressure_sealevel;temperature;humidity
17054;BME280;8643;48.824;11.422;2024-03-17T00:01:40;97686.97;;;2.31;100.00
17054;BME280;8643;48.824;11.422;2024-03-17T00:04:07;97691.28;;;2.27;100.00
17054;BME280;8643;48.824;11.422;2024-03-17T00:06:36;97687.66;;;2.16;100.00
17054;BME280;8643;48.824;11.422;2024-03-17T00:09:03;97696.03;;;2.15;100.00
17054;BME280;8643;48.824;11.422;2024-03-17T00:11:32;97696.03;;;2.15;100.00
17054;BME280;8643;48.824;11.422;2024-03-17T00:13:59;97706.59;;;2.16;100.00
17054;BME280;8643;48.824;11.422;2024-03-17T00:16:27;97712.38;;;2.30;100.00
17054;BME280;8643;48.824;11.422;2024-03-17T00:18:53;97716.22;;;2.39;100.00
17054;BME280;8643;48.824;11.422;2024-03-17T00:21:21;97719.53;;;2.52;100.00
17054;BME280;8643;48.824;11.422;2024-03-17T00:23:49;97714.78;;;2.64;100.00
17054;BME280;8643;48.824;11.422;2024-03-17T00:26:17;97714.00;;;2.74;100.00
17054;BME280;8643;48.824;11.422;2024-03-17T00:28:45;97703.25;;;2.84;100.00
17054;BME280;8643;48.824;11.422;2024-03-17T00:31:16;97699.25;;;2.97;100.00
17054;BME280;8643;48.824;11.422;2024-03-17T00:33:43;97700.09;;;3.08;100.00
17054;BME280;8643;48.824;11.422;2024-03-17T00:36:11;97697.72;;;3.22;100.00
17054;BME280;8643;48.824;11.422;2024-03-17T00:38:37;97702.03;;;3.18;100.00
17054;BME280;8643;48.824;11.422;2024-03-17T00:41:06;97695.53;;;3.14;100.00
17054;BME280;8643;48.824;11.422;2024-03-17T00:43:33;97701.19;;;3.07;100.00
17054;BME280;8643;48.824;11.422;2024-03-17T00:46:01;97691.69;;;3.04;100.00
17054;BME280;8643;48.824;11.422;2024-03-17T00:48:28;97692.03;;;3.18;100.00
17054;BME280;8643;48.824;11.422;2024-03-17T00:50:56;97690.41;;;3.27;100.00
17054;BME280;8643;48.824;11.422;2024-03-17T00:53:23;97690.41;;;3.27;100.00
17054;BME280;8643;48.824;11.422;2024-03-17T00:55:52;97687.69;;;3.22;100.00
17054;BME280;8643;48.824;11.422;2024-03-17T00:58:20;97694.47;;;3.15;100.00
17054;BME280;8643;48.824;11.422;2024-03-17T01:00:48;97691.16;;;3.07;100.00
17054;BME280;8643;48.824;11.422;2024-03-17T01:03:16;97684.66;;;3.03;100.00
17054;BME280;8643;48.824;11.422;2024-03-17T01:05:45;97686.25;;;2.99;100.00
17054;BME280;8643;48.824;11.422;2024-03-17T01:08:14;97672.97;;;2.92;100.00
17054;BME280;8643;48.824;11.422;2024-03-17T01:10:42;97674.88;;;2.87;100.00
17054;BME280;8643;48.824;11.422;2024-03-17T01:13:09;97677.47;;;2.71;100.00
17054;BME280;8643;48.824;11.422;2024-03-17T01:15:39;97670.94;;;2.62;100.00
17054;BME280;8643;48.824;11.422;2024-03-17T01:18:06;97669.59;;;2.60;100.00
17054;BME280;8643;48.824;11.422;2024-03-17T01:20:36;97667.94;;;2.59;100.00
17054;BME280;8643;48.824;11.422;2024-03-17T01:23:04;97670.09;;;2.56;100.00
17054;BME280;8643;48.824;11.422;2024-03-17T01:25:34;97677.19;;;2.63;100.00
17054;BME280;8643;48.824;11.422;2024-03-17T01:28:03;97679.91;;;2.68;100.00
17054;BME280;8643;48.824;11.422;2024-03-17T01:30:31;97669.06;;;2.63;100.00
17054;BME280;8643;48.824;11.422;2024-03-17T01:33:00;97663.06;;;2.55;100.00
17054;BME280;8643;48.824;11.422;2024-03-17T01:35:28;97653.84;;;2.46;100.00
17054;BME280;8643;48.824;11.422;2024-03-17T01:37:55;97660.56;;;2.44;100.00
17054;BME280;8643;48.824;11.422;2024-03-17T01:40:22;97660.06;;;2.52;100.00
17054;BME280;8643;48.824;11.422;2024-03-17T01:42:49;97654.16;;;2.60;100.00
17054;BME280;8643;48.824;11.422;2024-03-17T01:45:28;97657.00;;;2.91;100.00
17054;BME280;8643;48.824;11.422;2024-03-17T01:47:57;97650.06;;;3.26;100.00
17054;BME280;8643;48.824;11.422;2024-03-17T01:50:31;97658.78;;;3.48;100.00
17054;BME280;8643;48.824;11.422;2024-03-17T01:53:04;97654.50;;;3.58;100.00
17054;BME280;8643;48.824;11.422;2024-03-17T01:55:32;97647.19;;;3.63;100.00
17054;BME280;8643;48.824;11.422;2024-03-17T01:58:02;97635.78;;;3.56;100.00
17054;BME280;8643;48.824;11.422;2024-03-17T02:00:29;97632.78;;;3.27;100.00
17054;BME280;8643;48.824;11.422;2024-03-17T02:02:57;97626.97;;;2.82;100.00
17054;BME280;8643;48.824;11.422;2024-03-17T02:05:25;97630.59;;;2.50;100.00
17054;BME280;8643;48.824;11.422;2024-03-17T02:07:53;97629.63;;;2.24;100.00
17054;BME280;8643;48.824;11.422;2024-03-17T02:10:20;97624.63;;;2.00;100.00
17054;BME280;8643;48.824;11.422;2024-03-17T02:12:48;97635.88;;;1.92;100.00
17054;BME280;8643;48.824;11.422;2024-03-17T02:15:14;97629.88;;;1.80;100.00
17054;BME280;8643;48.824;11.422;2024-03-17T02:17:42;97625.00;;;1.82;100.00
17054;BME280;8643;48.824;11.422;2024-03-17T02:20:09;97620.47;;;1.88;100.00
17054;BME280;8643;48.824;11.422;2024-03-17T02:22:38;97621.56;;;1.92;100.00
17054;BME280;8643;48.824;11.422;2024-03-17T02:25:06;97618.31;;;1.90;100.00
17054;BME280;8643;48.824;11.422;2024-03-17T02:27:35;97615.88;;;1.88;100.00
17054;BME280;8643;48.824;11.422;2024-03-17T02:30:02;97614.00;;;1.89;100.00
17054;BME280;8643;48.824;11.422;2024-03-17T02:32:30;97614.25;;;1.87;100.00
17054;BME280;8643;48.824;11.422;2024-03-17T02:34:57;97621.81;;;1.85;100.00
17054;BME280;8643;48.824;11.422;2024-03-17T02:37:24;97604.69;;;1.74;100.00
17054;BME280;8643;48.824;11.422;2024-03-17T02:39:52;97603.59;;;1.70;100.00
17054;BME280;8643;48.824;11.422;2024-03-17T02:42:20;97609.69;;;1.55;100.00
17054;BME280;8643;48.824;11.422;2024-03-17T02:44:47;97609.88;;;1.43;100.00
17054;BME280;8643;48.824;11.422;2024-03-17T02:47:15;97608.72;;;1.39;100.00
17054;BME280;8643;48.824;11.422;2024-03-17T02:49:42;97617.34;;;1.36;100.00
17054;BME280;8643;48.824;11.422;2024-03-17T02:52:11;97612.50;;;1.38;100.00
17054;BME280;8643;48.824;11.422;2024-03-17T02:54:39;97621.16;;;1.73;100.00
17054;BME280;8643;48.824;11.422;2024-03-17T02:57:08;97612.75;;;1.69;100.00
17054;BME280;8643;48.824;11.422;2024-03-17T02:59:35;97611.66;;;1.65;100.00
17054;BME280;8643;48.824;11.422;2024-03-17T03:02:03;97607.28;;;1.59;100.00
17054;BME280;8643;48.824;11.422;2024-03-17T03:04:31;97614.94;;;1.40;100.00
17054;BME280;8643;48.824;11.422;2024-03-17T03:06:58;97614.28;;;1.27;100.00
17054;BME280;8643;48.824;11.422;2024-03-17T03:09:26;97625.47;;;1.41;100.00
17054;BME280;8643;48.824;11.422;2024-03-17T03:11:58;97623.78;;;1.62;100.00
17054;BME280;8643;48.824;11.422;2024-03-17T03:14:27;97625.41;;;1.63;100.00
17054;BME280;8643;48.824;11.422;2024-03-17T03:16:55;97619.28;;;1.73;100.00
17054;BME280;8643;48.824;11.422;2024-03-17T03:19:23;97619.84;;;1.75;100.00
17054;BME280;8643;48.824;11.422;2024-03-17T03:21:50;97621.72;;;1.75;100.00
17054;BME280;8643;48.824;11.422;2024-03-17T03:24:17;97627.41;;;1.78;100.00
17054;BME280;8643;48.824;11.422;2024-03-17T03:26:45;97621.81;;;1.85;100.00
17054;BME280;8643;48.824;11.422;2024-03-17T03:29:13;97622.44;;;1.97;100.00
17054;BME280;8643;48.824;11.422;2024-03-17T03:31:42;97627.03;;;2.02;100.00
17054;BME280;8643;48.824;11.422;2024-03-17T03:34:10;97623.56;;;2.07;100.00
17054;BME280;8643;48.824;11.422;2024-03-17T03:36:39;97619.22;;;2.00;100.00
17054;BME280;8643;48.824;11.422;2024-03-17T03:39:08;97614.66;;;2.06;100.00
17054;BME280;8643;48.824;11.422;2024-03-17T03:41:38;97615.03;;;2.20;100.00
17054;BME280;8643;48.824;11.422;2024-03-17T03:44:05;97622.41;;;2.35;100.00
17054;BME280;8643;48.824;11.422;2024-03-17T03:46:34;97617.31;;;2.44;100.00
17054;BME280;8643;48.824;11.422;2024-03-17T03:49:03;97610.84;;;2.45;100.00
17054;BME280;8643;48.824;11.422;2024-03-17T03:51:30;97603.75;;;2.33;100.00
17054;BME280;8643;48.824;11.422;2024-03-17T03:53:58;97614.47;;;2.18;100.00
17054;BME280;8643;48.824;11.422;2024-03-17T03:56:26;97610.63;;;2.09;100.00
17054;BME280;8643;48.824;11.422;2024-03-17T03:58:55;97613.59;;;2.07;100.00
17054;BME280;8643;48.824;11.422;2024-03-17T04:01:23;97609.28;;;2.11;100.00
17054;BME280;8643;48.824;11.422;2024-03-17T04:03:50;97611.75;;;2.18;100.00
17054;BME280;8643;48.824;11.422;2024-03-17T04:06:20;97605.06;;;2.26;100.00
17054;BME280;8643;48.824;11.422;2024-03-17T04:08:47;97618.13;;;2.44;100.00
17054;BME280;8643;48.824;11.422;2024-03-17T04:11:15;97613.88;;;2.59;100.00
17054;BME280;8643;48.824;11.422;2024-03-17T04:13:43;97611.44;;;2.62;100.00
17054;BME280;8643;48.824;11.422;2024-03-17T04:16:10;97614.38;;;2.55;100.00
17054;BME280;8643;48.824;11.422;2024-03-17T04:18:41;97616.00;;;2.51;100.00
17054;BME280;8643;48.824;11.422;2024-03-17T04:21:08;97615.44;;;2.49;100.00
17054;BME280;8643;48.824;11.422;2024-03-17T04:23:37;97610.59;;;2.51;100.00
17054;BME280;8643;48.824;11.422;2024-03-17T04:26:05;97606.00;;;2.57;100.00
17054;BME280;8643;48.824;11.422;2024-03-17T04:28:34;97604.16;;;2.63;100.00
17054;BME280;8643;48.824;11.422;2024-03-17T04:31:05;97609.34;;;2.69;100.00
17054;BME280;8643;48.824;11.422;2024-03-17T04:33:34;97606.63;;;2.69;100.00
17054;BME280;8643;48.824;11.422;2024-03-17T04:36:02;97611.53;;;2.78;100.00
17054;BME280;8643;48.824;11.422;2024-03-17T04:38:30;97612.59;;;2.77;100.00
17054;BME280;8643;48.824;11.422;2024-03-17T04:40:59;97607.69;;;2.68;100.00
17054;BME280;8643;48.824;11.422;2024-03-17T04:43:32;97595.28;;;2.67;100.00
17054;BME280;8643;48.824;11.422;2024-03-17T04:46:01;97605.50;;;2.65;100.00
17054;BME280;8643;48.824;11.422;2024-03-17T04:48:30;97601.75;;;2.71;100.00
17054;BME280;8643;48.824;11.422;2024-03-17T04:50:58;97599.06;;;2.71;100.00
17054;BME280;8643;48.824;11.422;2024-03-17T04:53:27;97594.50;;;2.77;100.00
17054;BME280;8643;48.824;11.422;2024-03-17T04:56:04;97595.56;;;2.81;100.00
17054;BME280;8643;48.824;11.422;2024-03-17T04:58:33;97596.13;;;2.83;100.00
17054;BME280;8643;48.824;11.422;2024-03-17T05:01:05;97601.50;;;2.78;100.00
17054;BME280;8643;48.824;11.422;2024-03-17T05:03:33;97605.59;;;2.86;100.00
17054;BME280;8643;48.824;11.422;2024-03-17T05:06:01;97605.84;;;2.79;100.00
17054;BME280;8643;48.824;11.422;2024-03-17T05:08:31;97604.53;;;2.87;100.00
17054;BME280;8643;48.824;11.422;2024-03-17T05:11:04;97601.31;;;2.95;100.00
17054;BME280;8643;48.824;11.422;2024-03-17T05:13:32;97607.53;;;3.01;100.00
17054;BME280;8643;48.824;11.422;2024-03-17T05:16:01;97607.81;;;3.09;100.00
17054;BME280;8643;48.824;11.422;2024-03-17T05:18:30;97622.19;;;3.15;100.00
17054;BME280;8643;48.824;11.422;2024-03-17T05:21:00;97607.59;;;3.21;100.00
17054;BME280;8643;48.824;11.422;2024-03-17T05:23:29;97610.84;;;3.23;100.00
17054;BME280;8643;48.824;11.422;2024-03-17T05:25:58;97609.78;;;3.24;100.00
17054;BME280;8643;48.824;11.422;2024-03-17T05:28:29;97622.47;;;3.29;100.00
17054;BME280;8643;48.824;11.422;2024-03-17T05:30:56;97619.50;;;3.36;100.00
17054;BME280;8643;48.824;11.422;2024-03-17T05:33:26;97622.78;;;3.43;100.00
17054;BME280;8643;48.824;11.422;2024-03-17T05:35:55;97616.56;;;3.42;100.00
17054;BME280;8643;48.824;11.422;2024-03-17T05:38:25;97617.09;;;3.49;100.00
17054;BME280;8643;48.824;11.422;2024-03-17T05:40:54;97624.69;;;3.53;100.00
17054;BME280;8643;48.824;11.422;2024-03-17T05:43:22;97629.56;;;3.56;100.00
17054;BME280;8643;48.824;11.422;2024-03-17T05:45:52;97625.22;;;3.65;100.00
17054;BME280;8643;48.824;11.422;2024-03-17T05:48:20;97633.34;;;3.65;100.00
17054;BME280;8643;48.824;11.422;2024-03-17T05:50:48;97634.47;;;3.59;100.00
17054;BME280;8643;48.824;11.422;2024-03-17T05:53:17;97639.06;;;3.63;100.00
17054;BME280;8643;48.824;11.422;2024-03-17T05:55:45;97637.97;;;3.64;100.00
17054;BME280;8643;48.824;11.422;2024-03-17T05:58:13;97633.09;;;3.66;100.00
17054;BME280;8643;48.824;11.422;2024-03-17T06:00:40;97632.28;;;3.71;100.00
17054;BME280;8643;48.824;11.422;2024-03-17T06:03:10;97625.78;;;3.72;100.00
17054;BME280;8643;48.824;11.422;2024-03-17T06:05:40;97622.00;;;3.63;100.00
17054;BME280;8643;48.824;11.422;2024-03-17T06:08:07;97622.00;;;3.47;100.00
17054;BME280;8643;48.824;11.422;2024-03-17T06:10:42;97607.34;;;3.33;100.00
17054;BME280;8643;48.824;11.422;2024-03-17T06:13:09;97617.06;;;3.24;100.00
17054;BME280;8643;48.824;11.422;2024-03-17T06:15:39;97623.56;;;3.28;100.00
17054;BME280;8643;48.824;11.422;2024-03-17T06:18:10;97627.63;;;3.36;100.00
17054;BME280;8643;48.824;11.422;2024-03-17T06:20:41;97629.59;;;3.81;100.00
17054;BME280;8643;48.824;11.422;2024-03-17T06:23:09;97638.19;;;4.50;100.00
17054;BME280;8643;48.824;11.422;2024-03-17T06:25:41;97631.75;;;5.01;100.00
17054;BME280;8643;48.824;11.422;2024-03-17T06:28:09;97635.81;;;5.09;100.00
17054;BME280;8643;48.824;11.422;2024-03-17T06:30:40;97645.31;;;5.06;100.00
17054;BME280;8643;48.824;11.422;2024-03-17T06:33:11;97637.28;;;4.75;100.00
17054;BME280;8643;48.824;11.422;2024-03-17T06:35:39;97634.34;;;4.62;100.00
17054;BME280;8643;48.824;11.422;2024-03-17T06:38:07;97626.50;;;4.55;100.00
17054;BME280;8643;48.824;11.422;2024-03-17T06:40:36;97638.44;;;4.54;100.00
17054;BME280;8643;48.824;11.422;2024-03-17T06:43:04;97624.41;;;5.02;100.00
17054;BME280;8643;48.824;11.422;2024-03-17T06:45:32;97616.19;;;5.22;100.00
17054;BME280;8643;48.824;11.422;2024-03-17T06:48:00;97610.44;;;5.68;100.00
17054;BME280;8643;48.824;11.422;2024-03-17T06:50:29;97619.94;;;6.35;100.00
17054;BME280;8643;48.824;11.422;2024-03-17T06:52:56;97611.47;;;6.66;100.00
17054;BME280;8643;48.824;11.422;2024-03-17T06:55:24;97601.41;;;7.09;100.00
17054;BME280;8643;48.824;11.422;2024-03-17T06:57:51;97604.00;;;7.39;100.00
17054;BME280;8643;48.824;11.422;2024-03-17T07:00:19;97600.56;;;7.85;100.00
17054;BME280;8643;48.824;11.422;2024-03-17T07:02:51;97602.56;;;8.12;100.00
17054;BME280;8643;48.824;11.422;2024-03-17T07:05:18;97598.75;;;8.13;100.00
17054;BME280;8643;48.824;11.422;2024-03-17T07:07:47;97601.00;;;8.39;100.00
17054;BME280;8643;48.824;11.422;2024-03-17T07:10:15;97597.81;;;8.51;100.00
17054;BME280;8643;48.824;11.422;2024-03-17T07:12:42;97602.06;;;8.71;100.00
17054;BME280;8643;48.824;11.422;2024-03-17T07:15:11;97602.63;;;9.09;100.00
17054;BME280;8643;48.824;11.422;2024-03-17T07:17:38;97601.63;;;9.56;100.00
17054;BME280;8643;48.824;11.422;2024-03-17T07:20:07;97613.50;;;9.51;100.00
17054;BME280;8643;48.824;11.422;2024-03-17T07:22:39;97614.50;;;9.55;100.00
17054;BME280;8643;48.824;11.422;2024-03-17T07:25:09;97614.72;;;10.04;100.00
17054;BME280;8643;48.824;11.422;2024-03-17T07:27:36;97613.13;;;10.12;100.00
17054;BME280;8643;48.824;11.422;2024-03-17T07:30:07;97608.88;;;10.51;100.00
17054;BME280;8643;48.824;11.422;2024-03-17T07:32:35;97609.84;;;10.86;100.00
17054;BME280;8643;48.824;11.422;2024-03-17T07:35:04;97610.47;;;10.92;100.00
17054;BME280;8643;48.824;11.422;2024-03-17T07:37:32;97607.56;;;10.79;100.00
17054;BME280;8643;48.824;11.422;2024-03-17T07:40:00;97611.94;;;10.89;100.00
17054;BME280;8643;48.824;11.422;2024-03-17T07:42:31;97613.59;;;10.99;100.00
17054;BME280;8643;48.824;11.422;2024-03-17T07:44:59;97609.91;;;11.21;100.00
17054;BME280;8643;48.824;11.422;2024-03-17T07:47:27;97605.78;;;10.43;100.00
17054;BME280;8643;48.824;11.422;2024-03-17T07:50:01;97602.00;;;10.08;100.00
17054;BME280;8643;48.824;11.422;2024-03-17T07:52:31;97598.84;;;10.37;100.00
17054;BME280;8643;48.824;11.422;2024-03-17T07:54:58;97598.09;;;11.03;100.00
17054;BME280;8643;48.824;11.422;2024-03-17T07:57:28;97589.31;;;11.41;100.00
17054;BME280;8643;48.824;11.422;2024-03-17T07:59:56;97589.16;;;11.37;100.00
17054;BME280;8643;48.824;11.422;2024-03-17T08:02:24;97599.47;;;11.58;100.00
17054;BME280;8643;48.824;11.422;2024-03-17T08:04:51;97604.69;;;11.95;100.00
17054;BME280;8643;48.824;11.422;2024-03-17T08:07:18;97598.03;;;11.43;100.00
17054;BME280;8643;48.824;11.422;2024-03-17T08:09:46;97595.44;;;11.73;100.00
17054;BME280;8643;48.824;11.422;2024-03-17T08:12:13;97592.97;;;12.33;100.00
17054;BME280;8643;48.824;11.422;2024-03-17T08:14:43;97597.44;;;12.55;100.00
17054;BME280;8643;48.824;11.422;2024-03-17T08:17:10;97600.44;;;12.71;100.00
17054;BME280;8643;48.824;11.422;2024-03-17T08:19:38;97587.94;;;12.91;100.00
17054;BME280;8643;48.824;11.422;2024-03-17T08:22:07;97592.06;;;12.97;100.00
17054;BME280;8643;48.824;11.422;2024-03-17T08:24:35;97586.25;;;13.28;99.73
17054;BME280;8643;48.824;11.422;2024-03-17T08:27:03;97590.38;;;13.43;100.00
17054;BME280;8643;48.824;11.422;2024-03-17T08:29:30;97585.97;;;13.21;100.00
17054;BME280;8643;48.824;11.422;2024-03-17T08:31:59;97587.72;;;13.26;93.33
17054;BME280;8643;48.824;11.422;2024-03-17T08:34:27;97590.69;;;12.82;97.19
17054;BME280;8643;48.824;11.422;2024-03-17T08:36:54;97587.84;;;12.70;100.00
17054;BME280;8643;48.824;11.422;2024-03-17T08:39:22;97587.56;;;12.92;100.00
17054;BME280;8643;48.824;11.422;2024-03-17T08:41:50;97571.75;;;13.19;100.00
17054;BME280;8643;48.824;11.422;2024-03-17T08:44:17;97572.06;;;13.68;99.35
17054;BME280;8643;48.824;11.422;2024-03-17T08:46:45;97564.63;;;13.18;96.05
17054;BME280;8643;48.824;11.422;2024-03-17T08:49:14;97567.09;;;13.41;94.97
17054;BME280;8643;48.824;11.422;2024-03-17T08:51:41;97569.91;;;13.74;91.51
17054;BME280;8643;48.824;11.422;2024-03-17T08:54:09;97577.75;;;13.63;90.07
17054;BME280;8643;48.824;11.422;2024-03-17T08:56:36;97567.59;;;13.97;95.64
17054;BME280;8643;48.824;11.422;2024-03-17T08:59:04;97569.25;;;14.10;95.42
17054;BME280;8643;48.824;11.422;2024-03-17T09:01:31;97569.84;;;14.28;93.21
17054;BME280;8643;48.824;11.422;2024-03-17T09:03:59;97562.06;;;14.30;96.54
17054;BME280;8643;48.824;11.422;2024-03-17T09:06:28;97559.22;;;14.52;91.62
17054;BME280;8643;48.824;11.422;2024-03-17T09:08:56;97556.25;;;14.57;87.37
17054;BME280;8643;48.824;11.422;2024-03-17T09:11:23;97566.88;;;14.67;86.90
17054;BME280;8643;48.824;11.422;2024-03-17T09:13:54;97555.91;;;14.46;83.98
17054;BME280;8643;48.824;11.422;2024-03-17T09:16:21;97558.19;;;14.44;91.43
17054;BME280;8643;48.824;11.422;2024-03-17T09:18:51;97561.31;;;15.04;82.43
17054;BME280;8643;48.824;11.422;2024-03-17T09:21:18;97556.47;;;15.38;86.37
17054;BME280;8643;48.824;11.422;2024-03-17T09:23:48;97559.84;;;15.19;82.55
17054;BME280;8643;48.824;11.422;2024-03-17T09:26:16;97559.38;;;15.29;84.76
17054;BME280;8643;48.824;11.422;2024-03-17T09:28:44;97556.47;;;15.38;81.15
17054;BME280;8643;48.824;11.422;2024-03-17T09:31:12;97559.09;;;15.47;79.86
17054;BME280;8643;48.824;11.422;2024-03-17T09:33:39;97556.03;;;15.64;77.20
17054;BME280;8643;48.824;11.422;2024-03-17T09:36:09;97554.28;;;15.31;81.83
17054;BME280;8643;48.824;11.422;2024-03-17T09:38:37;97555.91;;;15.73;81.48
17054;BME280;8643;48.824;11.422;2024-03-17T09:41:07;97546.78;;;16.13;79.56
17054;BME280;8643;48.824;11.422;2024-03-17T09:43:42;97545.19;;;15.84;76.14
17054;BME280;8643;48.824;11.422;2024-03-17T09:46:13;97538.47;;;15.97;77.61
17054;BME280;8643;48.824;11.422;2024-03-17T09:48:42;97534.97;;;16.60;80.66
17054;BME280;8643;48.824;11.422;2024-03-17T09:51:20;97536.84;;;16.40;83.24
17054;BME280;8643;48.824;11.422;2024-03-17T09:53:48;97535.41;;;16.94;72.17
17054;BME280;8643;48.824;11.422;2024-03-17T09:56:19;97530.28;;;17.12;75.22
17054;BME280;8643;48.824;11.422;2024-03-17T09:58:49;97523.84;;;17.44;72.99
17054;BME280;8643;48.824;11.422;2024-03-17T10:01:17;97521.25;;;17.31;65.52
17054;BME280;8643;48.824;11.422;2024-03-17T10:03:46;97512.50;;;17.29;69.63
17054;BME280;8643;48.824;11.422;2024-03-17T10:06:19;97510.78;;;17.99;68.91
17054;BME280;8643;48.824;11.422;2024-03-17T10:08:48;97511.13;;;17.78;65.33
17054;BME280;8643;48.824;11.422;2024-03-17T10:11:20;97512.16;;;18.32;71.43
17054;BME280;8643;48.824;11.422;2024-03-17T10:14:00;97522.06;;;18.33;64.89
17054;BME280;8643;48.824;11.422;2024-03-17T10:16:30;97521.44;;;18.20;64.12
17054;BME280;8643;48.824;11.422;2024-03-17T10:19:07;97517.06;;;17.96;65.58
17054;BME280;8643;48.824;11.422;2024-03-17T10:21:37;97518.22;;;19.11;62.03
17054;BME280;8643;48.824;11.422;2024-03-17T10:24:09;97524.56;;;19.72;58.65
17054;BME280;8643;48.824;11.422;2024-03-17T10:26:42;97529.34;;;19.71;57.43
17054;BME280;8643;48.824;11.422;2024-03-17T10:29:21;97526.75;;;18.52;61.14
17054;BME280;8643;48.824;11.422;2024-03-17T10:31:51;97522.84;;;17.71;61.08
17054;BME280;8643;48.824;11.422;2024-03-17T10:34:20;97522.75;;;18.49;60.56
17054;BME280;8643;48.824;11.422;2024-03-17T10:36:51;97521.19;;;19.55;58.96
17054;BME280;8643;48.824;11.422;2024-03-17T10:39:27;97518.88;;;19.31;57.08
17054;BME280;8643;48.824;11.422;2024-03-17T10:42:02;97519.13;;;20.54;57.58
17054;BME280;8643;48.824;11.422;2024-03-17T10:44:30;97521.88;;;20.09;51.29
17054;BME280;8643;48.824;11.422;2024-03-17T10:47:00;97522.06;;;20.68;50.28
17054;BME280;8643;48.824;11.422;2024-03-17T10:49:30;97517.81;;;20.85;49.61
17054;BME280;8643;48.824;11.422;2024-03-17T10:52:01;97512.34;;;21.00;50.11
17054;BME280;8643;48.824;11.422;2024-03-17T10:54:31;97512.31;;;16.23;58.43
17054;BME280;8643;48.824;11.422;2024-03-17T10:57:16;97513.69;;;15.44;63.53
17054;BME280;8643;48.824;11.422;2024-03-17T10:59:47;97512.03;;;15.15;65.22
17054;BME280;8643;48.824;11.422;2024-03-17T11:02:22;97508.22;;;16.17;69.22
17054;BME280;8643;48.824;11.422;2024-03-17T11:04:57;97507.97;;;17.21;63.31
17054;BME280;8643;48.824;11.422;2024-03-17T11:07:26;97508.06;;;15.40;64.63
17054;BME280;8643;48.824;11.422;2024-03-17T11:09:56;97499.69;;;15.37;65.59
17054;BME280;8643;48.824;11.422;2024-03-17T11:12:44;97504.59;;;15.72;67.60
17054;BME280;8643;48.824;11.422;2024-03-17T11:15:38;97488.31;;;14.73;67.66
17054;BME280;8643;48.824;11.422;2024-03-17T11:18:35;97479.91;;;14.82;66.45
17054;BME280;8643;48.824;11.422;2024-03-17T11:21:06;97485.56;;;14.03;71.74
17054;BME280;8643;48.824;11.422;2024-03-17T11:23:37;97482.41;;;13.80;72.98
17054;BME280;8643;48.824;11.422;2024-03-17T11:26:06;97477.59;;;14.35;72.93
17054;BME280;8643;48.824;11.422;2024-03-17T11:28:52;97480.75;;;15.23;66.88
17054;BME280;8643;48.824;11.422;2024-03-17T11:31:53;97472.28;;;16.33;66.10
17054;BME280;8643;48.824;11.422;2024-03-17T11:34:37;97476.59;;;16.97;60.98
17054;BME280;8643;48.824;11.422;2024-03-17T11:37:06;97475.16;;;16.36;62.91
17054;BME280;8643;48.824;11.422;2024-03-17T11:39:51;97465.97;;;15.44;65.85
17054;BME280;8643;48.824;11.422;2024-03-17T11:42:24;97464.16;;;15.64;65.37
17054;BME280;8643;48.824;11.422;2024-03-17T11:45:00;97464.53;;;17.06;60.71
17054;BME280;8643;48.824;11.422;2024-03-17T11:47:38;97453.44;;;16.86;61.13
17054;BME280;8643;48.824;11.422;2024-03-17T11:50:08;97457.63;;;15.28;62.21
17054;BME280;8643;48.824;11.422;2024-03-17T11:52:38;97456.69;;;15.92;65.31
17054;BME280;8643;48.824;11.422;2024-03-17T11:55:16;97465.88;;;17.31;57.11
17054;BME280;8643;48.824;11.422;2024-03-17T11:57:43;97461.44;;;17.46;59.00
17054;BME280;8643;48.824;11.422;2024-03-17T12:00:23;97452.34;;;18.31;58.71
17054;BME280;8643;48.824;11.422;2024-03-17T12:02:51;97450.25;;;17.82;60.70
17054;BME280;8643;48.824;11.422;2024-03-17T12:05:19;97448.16;;;17.75;57.27
17054;BME280;8643;48.824;11.422;2024-03-17T12:07:47;97459.38;;;17.04;60.09
17054;BME280;8643;48.824;11.422;2024-03-17T12:10:16;97447.28;;;17.90;59.61
17054;BME280;8643;48.824;11.422;2024-03-17T12:12:47;97460.53;;;16.36;61.25
17054;BME280;8643;48.824;11.422;2024-03-17T12:15:18;97452.63;;;15.05;62.48
17054;BME280;8643;48.824;11.422;2024-03-17T12:17:52;97440.81;;;15.05;67.23
17054;BME280;8643;48.824;11.422;2024-03-17T12:20:21;97443.81;;;14.99;65.39
17054;BME280;8643;48.824;11.422;2024-03-17T12:22:48;97435.13;;;14.85;66.20
17054;BME280;8643;48.824;11.422;2024-03-17T12:25:19;97429.69;;;15.01;67.00
17054;BME280;8643;48.824;11.422;2024-03-17T12:27:47;97428.44;;;15.71;66.66
17054;BME280;8643;48.824;11.422;2024-03-17T12:30:15;97431.38;;;15.62;63.95
17054;BME280;8643;48.824;11.422;2024-03-17T12:32:45;97420.41;;;16.42;62.12
17054;BME280;8643;48.824;11.422;2024-03-17T12:35:16;97408.91;;;16.75;62.19
17054;BME280;8643;48.824;11.422;2024-03-17T12:37:45;97400.19;;;17.09;61.56
17054;BME280;8643;48.824;11.422;2024-03-17T12:40:21;97396.25;;;17.91;57.21
17054;BME280;8643;48.824;11.422;2024-03-17T12:42:49;97401.50;;;17.97;56.74
17054;BME280;8643;48.824;11.422;2024-03-17T12:45:21;97404.09;;;16.88;57.87
17054;BME280;8643;48.824;11.422;2024-03-17T12:47:51;97399.28;;;16.85;58.65
17054;BME280;8643;48.824;11.422;2024-03-17T12:50:19;97397.59;;;15.37;60.59
17054;BME280;8643;48.824;11.422;2024-03-17T12:52:53;97388.56;;;15.68;64.78
17054;BME280;8643;48.824;11.422;2024-03-17T12:55:22;97393.63;;;15.50;63.06
17054;BME280;8643;48.824;11.422;2024-03-17T12:58:09;97387.81;;;14.34;66.41
17054;BME280;8643;48.824;11.422;2024-03-17T13:01:00;97389.41;;;15.12;65.51
17054;BME280;8643;48.824;11.422;2024-03-17T13:03:32;97386.91;;;15.07;66.64
17054;BME280;8643;48.824;11.422;2024-03-17T13:06:00;97381.91;;;15.41;66.13
17054;BME280;8643;48.824;11.422;2024-03-17T13:08:29;97375.13;;;16.30;62.92
17054;BME280;8643;48.824;11.422;2024-03-17T13:10:57;97378.31;;;16.33;63.79
17054;BME280;8643;48.824;11.422;2024-03-17T13:13:25;97377.31;;;16.05;62.16